Time;durP1;ratioP1;P1;durP2;ratioP2;P2;SDS_P1;SDS_P2;PMS_P1;PMS_P2;Temp;Humidity;BMP_temperature;BMP_pressure;BME280_temperature;BME280_humidity;BME280_pressure;Samples;Min_cycle;Max_cycle;Signal;HPM_P1;HPM_P2
2023/12/13 00:01:20;;;;;;;4.53;3.20;;;;;;;5.55;100.00;96752.22;6101436;19;20011;-71
2023/12/13 00:03:20;;;;;;;4.63;2.97;;;;;;;5.59;100.00;96753.00;6101051;19;20027;-71
2023/12/13 00:05:20;;;;;;;4.10;2.80;;;;;;;5.58;100.00;96748.69;6100879;19;20011;-71
2023/12/13 00:07:21;;;;;;;4.72;3.13;;;;;;;5.58;100.00;96754.19;6101484;19;20356;-71
2023/12/13 00:09:21;;;;;;;4.57;3.28;;;;;;;5.57;100.00;96760.84;6097391;19;20003;-71
2023/12/13 00:11:22;;;;;;;11.25;5.05;;;;;;;5.55;100.00;96756.94;6101450;19;20710;-71
2023/12/13 00:13:22;;;;;;;8.82;5.15;;;;;;;5.55;100.00;96748.69;6100697;19;20525;-71
2023/12/13 00:15:23;;;;;;;10.55;5.30;;;;;;;5.56;100.00;96756.53;6101181;19;20510;-71
2023/12/13 00:17:23;;;;;;;7.55;4.30;;;;;;;5.55;100.00;96754.19;6100010;19;20002;-71
2023/12/13 00:19:24;;;;;;;8.30;4.35;;;;;;;5.54;100.00;96752.59;6099172;19;20534;-71
2023/12/13 00:21:24;;;;;;;5.57;4.07;;;;;;;5.51;100.00;96748.69;6102036;19;20240;-71
2023/12/13 00:23:24;;;;;;;6.70;4.05;;;;;;;5.53;100.00;96740.84;6100600;19;20553;-71
2023/12/13 00:25:25;;;;;;;6.50;3.70;;;;;;;5.50;100.00;96747.09;6101312;19;20002;-71
2023/12/13 00:27:25;;;;;;;5.35;3.63;;;;;;;5.50;100.00;96740.84;6100847;19;20007;-71
2023/12/13 00:29:26;;;;;;;5.90;4.05;;;;;;;5.47;100.00;96741.63;6097842;19;20502;-71
2023/12/13 00:31:26;;;;;;;5.95;3.47;;;;;;;5.51;100.00;96739.66;6101171;19;20006;-71
2023/12/13 00:33:26;;;;;;;9.20;4.30;;;;;;;5.56;100.00;96736.56;6101078;19;19999;-71
2023/12/13 00:35:27;;;;;;;8.32;3.97;;;;;;;5.55;100.00;96733.03;6100032;19;20086;-71
2023/12/13 00:37:28;;;;;;;8.50;4.15;;;;;;;5.57;100.00;96738.91;6098540;19;20004;-71
2023/12/13 00:39:28;;;;;;;4.60;3.40;;;;;;;5.55;100.00;96732.25;6099494;19;20002;-71
2023/12/13 00:41:28;;;;;;;6.75;3.38;;;;;;;5.53;100.00;96729.09;6100656;19;19999;-71
2023/12/13 00:43:29;;;;;;;5.38;3.47;;;;;;;5.52;100.00;96731.03;6100180;19;19999;-71
2023/12/13 00:45:29;;;;;;;5.40;3.30;;;;;;;5.54;100.00;96744.38;6099543;19;20327;-71
2023/12/13 00:47:29;;;;;;;5.03;3.15;;;;;;;5.50;100.00;96738.09;6098735;19;20251;-71
2023/12/13 00:49:29;;;;;;;5.28;3.60;;;;;;;5.50;100.00;96730.66;6096994;19;19998;-71
2023/12/13 00:51:30;;;;;;;5.68;3.80;;;;;;;5.48;100.00;96737.69;6086670;19;20320;-71
2023/12/13 00:53:30;;;;;;;4.10;2.92;;;;;;;5.47;100.00;96738.88;6087085;19;20219;-71
2023/12/13 00:55:30;;;;;;;4.68;2.92;;;;;;;5.45;100.00;96743.94;6086295;19;20009;-71
2023/12/13 00:57:31;;;;;;;4.05;3.15;;;;;;;5.44;100.00;96739.63;6086698;19;20070;-71
2023/12/13 00:59:31;;;;;;;6.38;3.38;;;;;;;5.46;100.00;96745.50;6084528;19;20014;-71
2023/12/13 01:01:32;;;;;;;8.35;4.65;;;;;;;5.43;100.00;96738.06;6087397;19;20252;-71
2023/12/13 01:03:32;;;;;;;7.38;4.40;;;;;;;5.44;100.00;96745.13;6085164;19;20006;-71
2023/12/13 01:05:33;;;;;;;5.13;3.92;;;;;;;5.42;100.00;96734.53;6085365;19;20431;-71
2023/12/13 01:07:33;;;;;;;6.10;4.03;;;;;;;5.40;100.00;96745.13;6086246;19;20296;-71
2023/12/13 01:09:33;;;;;;;6.40;3.45;;;;;;;5.40;100.00;96747.06;6085295;19;19998;-71
2023/12/13 01:11:34;;;;;;;4.05;3.45;;;;;;;5.37;100.00;96737.63;6086504;19;20459;-71
2023/12/13 01:13:35;;;;;;;4.57;3.20;;;;;;;5.36;100.00;96738.81;6086194;19;20030;-71
2023/12/13 01:15:36;;;;;;;7.82;3.97;;;;;;;5.37;100.00;96743.13;6085359;19;20101;-71
2023/12/13 01:17:37;;;;;;;6.50;3.60;;;;;;;5.35;100.00;96740.78;6085078;19;21006;-71
2023/12/13 01:19:37;;;;;;;5.38;3.50;;;;;;;5.33;100.00;96739.59;6084773;19;20516;-71
2023/12/13 01:21:38;;;;;;;4.65;3.40;;;;;;;5.32;100.00;96740.78;6085399;19;20223;-71
2023/12/13 01:23:38;;;;;;;4.95;3.00;;;;;;;5.32;100.00;96757.22;6085546;19;20270;-71
2023/12/13 01:25:38;;;;;;;4.20;3.33;;;;;;;5.30;100.00;96743.91;6085093;19;20454;-71
2023/12/13 01:27:39;;;;;;;5.38;3.90;;;;;;;5.30;100.00;96745.88;6085605;19;20731;-71
2023/12/13 01:29:39;;;;;;;5.03;3.50;;;;;;;5.32;100.00;96752.53;6084725;19;20032;-71
2023/12/13 01:31:39;;;;;;;5.25;3.53;;;;;;;5.28;100.00;96748.19;6086222;19;20027;-71
2023/12/13 01:33:40;;;;;;;4.53;3.15;;;;;;;5.25;100.00;96741.53;6085231;19;20588;-71
2023/12/13 01:35:40;;;;;;;6.38;3.40;;;;;;;5.23;100.00;96746.63;6085635;19;20261;-71
2023/12/13 01:37:40;;;;;;;4.30;3.30;;;;;;;5.18;100.00;96735.22;6085743;19;20465;-71
2023/12/13 01:39:41;;;;;;;3.92;2.97;;;;;;;5.15;100.00;96733.25;6085114;19;20010;-71
2023/12/13 01:41:43;;;;;;;3.70;2.92;;;;;;;5.13;100.00;96743.81;6085131;19;20251;-71
2023/12/13 01:43:43;;;;;;;5.40;3.10;;;;;;;5.06;100.00;96739.88;6085982;19;20006;-71
2023/12/13 01:45:44;;;;;;;4.68;2.95;;;;;;;5.08;100.00;96745.75;6084542;19;20007;-71
2023/12/13 01:47:44;;;;;;;4.30;2.85;;;;;;;5.04;100.00;96742.19;6083494;19;20262;-71
2023/12/13 01:49:45;;;;;;;3.90;2.83;;;;;;;5.07;100.00;96740.66;6086420;19;20009;-71
2023/12/13 01:51:46;;;;;;;6.05;3.05;;;;;;;5.05;100.00;96737.53;6097931;19;20003;-71
2023/12/13 01:53:46;;;;;;;4.63;3.22;;;;;;;5.10;100.00;96728.13;6102035;19;20013;-71
2023/12/13 01:55:47;;;;;;;4.68;2.85;;;;;;;5.12;100.00;96729.31;6104993;19;20002;-71
2023/12/13 01:57:49;;;;;;;1.35;1.10;;;;;;;5.30;100.00;96732.16;6103923;19;20328;-71
2023/12/13 01:59:50;;;;;;;2.35;1.63;;;;;;;5.35;100.00;96731.75;6104108;19;20002;-71
2023/12/13 02:01:52;;;;;;;1.10;0.98;;;;;;;5.43;100.00;96736.09;6103882;19;20098;-71
2023/12/13 02:03:52;;;;;;;1.15;0.88;;;;;;;5.52;100.00;96733.78;6104957;19;20030;-71
2023/12/13 02:05:52;;;;;;;0.93;0.80;;;;;;;5.65;100.00;96726.00;6103901;19;20007;-71
2023/12/13 02:07:53;;;;;;;1.27;0.90;;;;;;;5.70;100.00;96722.06;6104795;19;20011;-71
2023/12/13 02:09:53;;;;;;;1.27;0.68;;;;;;;5.79;100.00;96722.47;6103622;19;20044;-71
2023/12/13 02:11:54;;;;;;;0.70;0.70;;;;;;;5.80;100.00;96718.59;6104298;19;20011;-71
2023/12/13 02:13:56;;;;;;;0.70;0.70;;;;;;;5.82;100.00;96708.00;6103683;19;20359;-71
2023/12/13 02:15:57;;;;;;;0.70;0.70;;;;;;;5.80;100.00;96715.84;6103998;19;20002;-71
2023/12/13 02:17:57;;;;;;;0.60;0.60;;;;;;;5.74;100.00;96707.19;6101263;19;20433;-71
2023/12/13 02:19:57;;;;;;;0.70;0.70;;;;;;;5.72;100.00;96704.06;6104041;19;20010;-71
2023/12/13 02:21:58;;;;;;;0.80;0.80;;;;;;;5.66;100.00;96697.38;6104001;19;20385;-71
2023/12/13 02:24:03;;;;;;;1.00;0.90;;;;;;;5.62;100.00;96711.06;6105483;19;20321;-71
2023/12/13 02:26:07;;;;;;;0.70;0.70;;;;;;;5.59;100.00;96705.59;6103007;19;20463;-71
2023/12/13 02:28:08;;;;;;;1.00;0.90;;;;;;;5.55;100.00;96700.09;6104526;19;20368;-72
2023/12/13 02:30:09;;;;;;;3.05;1.00;;;;;;;5.52;100.00;96714.56;6102993;19;20026;-71
2023/12/13 02:32:09;;;;;;;1.40;0.98;;;;;;;5.47;100.00;96705.97;6103967;19;20002;-71
2023/12/13 02:34:10;;;;;;;1.08;0.98;;;;;;;5.42;100.00;96703.59;6104449;19;19994;-71
2023/12/13 02:36:10;;;;;;;1.40;0.90;;;;;;;5.38;100.00;96700.84;6104265;19;20033;-71
2023/12/13 02:38:10;;;;;;;1.42;0.90;;;;;;;5.35;100.00;96701.59;6103510;19;20738;-71
2023/12/13 02:40:13;;;;;;;0.90;0.80;;;;;;;5.31;100.00;96689.84;6103839;19;20003;-71
2023/12/13 02:42:14;;;;;;;1.67;0.95;;;;;;;5.30;100.00;96691.81;6102781;19;19995;-71
2023/12/13 02:44:14;;;;;;;1.05;0.95;;;;;;;5.35;100.00;96696.13;6104720;19;20007;-71
2023/12/13 02:46:15;;;;;;;1.42;0.95;;;;;;;5.38;100.00;96700.03;6103839;19;20002;-71
2023/12/13 02:48:15;;;;;;;1.52;1.05;;;;;;;5.50;100.00;96703.22;6103881;19;19991;-71
2023/12/13 02:50:16;;;;;;;1.02;0.93;;;;;;;5.50;100.00;96697.72;6102441;19;20007;-71
2023/12/13 02:52:16;;;;;;;2.47;1.20;;;;;;;5.47;100.00;96706.75;6102885;19;20010;-71
2023/12/13 02:54:17;;;;;;;1.13;1.00;;;;;;;5.52;100.00;96702.81;6104214;19;19995;-71
2023/12/13 02:56:17;;;;;;;1.30;1.10;;;;;;;5.52;100.00;96702.81;6103005;19;20345;-71
2023/12/13 02:58:17;;;;;;;1.67;1.30;;;;;;;5.51;100.00;96701.25;6102814;19;20104;-71
2023/12/13 03:00:18;;;;;;;2.75;1.10;;;;;;;5.52;100.00;96708.31;6103682;19;19998;-71
2023/12/13 03:02:18;;;;;;;1.90;1.48;;;;;;;5.50;100.00;96699.69;6103630;19;20003;-71
2023/12/13 03:04:18;;;;;;;2.35;1.30;;;;;;;5.51;100.00;96699.31;6101709;19;20455;-71
2023/12/13 03:06:19;;;;;;;1.50;1.10;;;;;;;5.47;100.00;96693.03;6102215;19;20016;-71
2023/12/13 03:08:19;;;;;;;2.00;1.00;;;;;;;5.44;100.00;96702.00;6104383;19;20006;-71
2023/12/13 03:10:20;;;;;;;2.75;1.27;;;;;;;5.42;100.00;96700.84;6102841;19;19999;-71
2023/12/13 03:12:20;;;;;;;1.20;1.00;;;;;;;5.38;100.00;96703.59;6103921;19;20011;-71
2023/12/13 03:14:20;;;;;;;3.45;1.40;;;;;;;5.36;100.00;96701.22;6104318;19;20544;-71
2023/12/13 03:16:21;;;;;;;1.77;1.27;;;;;;;5.36;100.00;96701.22;6103497;19;20679;-71
2023/12/13 03:18:22;;;;;;;2.28;1.08;;;;;;;5.32;100.00;96699.63;6103017;19;20022;-71
2023/12/13 03:20:22;;;;;;;1.55;1.30;;;;;;;5.28;100.00;96699.59;6102691;19;20804;-71
2023/12/13 03:22:23;;;;;;;4.53;1.35;;;;;;;5.25;100.00;96697.66;6103631;19;20007;-71
2023/12/13 03:24:24;;;;;;;1.77;1.13;;;;;;;5.22;100.00;96697.66;6103065;19;20003;-71
2023/12/13 03:26:24;;;;;;;2.42;1.40;;;;;;;5.20;100.00;96698.00;6103601;19;20018;-71
2023/12/13 03:28:24;;;;;;;2.83;1.48;;;;;;;5.22;100.00;96694.91;6103438;19;20559;-71
2023/12/13 03:30:25;;;;;;;1.83;1.50;;;;;;;5.19;100.00;96696.44;6102099;19;20003;-71
2023/12/13 03:32:25;;;;;;;2.45;1.52;;;;;;;5.22;100.00;96689.44;6103144;19;20007;-71
2023/12/13 03:34:25;;;;;;;2.70;1.40;;;;;;;5.25;100.00;96685.91;6103380;19;21100;-71
2023/12/13 03:36:26;;;;;;;3.20;1.50;;;;;;;5.31;100.00;96692.59;6103439;19;20010;-71
2023/12/13 03:38:27;;;;;;;3.30;1.70;;;;;;;5.44;100.00;96687.53;6102471;19;20015;-71
2023/12/13 03:40:27;;;;;;;2.22;1.50;;;;;;;5.52;100.00;96692.63;6102968;19;20023;-71
2023/12/13 03:42:27;;;;;;;1.80;1.30;;;;;;;5.59;100.00;96684.44;6103249;19;20343;-71
2023/12/13 03:44:28;;;;;;;2.00;1.63;;;;;;;5.59;100.00;96686.38;6102798;19;20109;-71
2023/12/13 03:46:28;;;;;;;2.92;1.40;;;;;;;5.61;100.00;96689.53;6103299;19;20015;-71
2023/12/13 03:48:28;;;;;;;2.47;1.50;;;;;;;5.61;100.00;96679.34;6102364;19;20251;-71
2023/12/13 03:50:29;;;;;;;2.95;1.67;;;;;;;5.57;100.00;96686.00;6102223;19;20034;-71
2023/12/13 03:52:29;;;;;;;2.13;1.50;;;;;;;5.59;100.00;96684.44;6102219;19;20011;-71
2023/12/13 03:54:29;;;;;;;2.88;1.70;;;;;;;5.52;100.00;96692.63;6102465;19;20064;-71
2023/12/13 03:56:30;;;;;;;3.75;1.60;;;;;;;5.48;100.00;96691.06;6102355;19;20010;-71
2023/12/13 03:58:30;;;;;;;2.67;2.03;;;;;;;5.45;100.00;96697.31;6102291;19;20011;-71
2023/12/13 04:00:31;;;;;;;1.83;1.40;;;;;;;5.42;100.00;96701.63;6102026;19;20010;-71
2023/12/13 04:02:31;;;;;;;2.13;1.77;;;;;;;5.44;100.00;96699.28;6102132;19;20026;-71
2023/12/13 04:04:32;;;;;;;3.20;1.90;;;;;;;5.47;100.00;96693.03;6102500;19;20015;-71
2023/12/13 04:06:32;;;;;;;2.40;1.70;;;;;;;5.53;100.00;96699.69;6103632;19;20006;-71
2023/12/13 04:08:32;;;;;;;21.05;9.00;;;;;;;5.56;100.00;96701.69;6101067;19;20051;-72
2023/12/13 04:10:33;;;;;;;19.02;8.30;;;;;;;5.56;100.00;96703.63;6101550;19;20018;-71
2023/12/13 04:12:33;;;;;;;5.18;2.50;;;;;;;5.55;100.00;96699.31;6101745;19;20078;-71
2023/12/13 04:14:34;;;;;;;4.45;2.03;;;;;;;5.53;100.00;96701.66;6103310;19;20011;-71
2023/12/13 04:16:34;;;;;;;6.35;2.10;;;;;;;5.53;100.00;96696.94;6101185;19;20018;-71
2023/12/13 04:18:35;;;;;;;2.25;1.70;;;;;;;5.49;100.00;96693.41;6102104;19;20006;-71
2023/12/13 04:20:36;;;;;;;3.00;2.10;;;;;;;5.42;100.00;96689.88;6101716;19;20876;-71
2023/12/13 04:22:36;;;;;;;3.80;1.77;;;;;;;5.34;100.00;96689.84;6101626;19;20534;-71
2023/12/13 04:24:37;;;;;;;2.60;1.48;;;;;;;5.29;100.00;96700.41;6102063;19;20328;-71
2023/12/13 04:26:39;;;;;;;5.65;1.73;;;;;;;5.25;100.00;96691.38;6102095;19;20441;-71
2023/12/13 04:28:39;;;;;;;2.30;1.80;;;;;;;5.24;100.00;96695.31;6100708;19;20002;-71
2023/12/13 04:30:39;;;;;;;2.67;1.58;;;;;;;5.24;100.00;96682.38;6098986;19;20046;-71
2023/12/13 04:32:40;;;;;;;3.50;1.77;;;;;;;5.31;100.00;96689.84;6095602;19;20384;-71
2023/12/13 04:34:40;;;;;;;2.95;1.90;;;;;;;5.40;100.00;96694.97;6097052;19;20011;-71
2023/12/13 04:36:41;;;;;;;2.55;1.90;;;;;;;5.45;100.00;96698.09;6100672;19;20017;-71
2023/12/13 04:38:41;;;;;;;3.35;2.00;;;;;;;5.51;100.00;96695.78;6101811;19;20010;-71
2023/12/13 04:40:42;;;;;;;5.20;1.83;;;;;;;5.52;100.00;96695.38;6100912;19;20027;-71
2023/12/13 04:42:42;;;;;;;3.30;1.85;;;;;;;5.57;100.00;96692.28;6099670;19;20430;-71
2023/12/13 04:44:43;;;;;;;2.85;1.75;;;;;;;5.58;100.00;96688.34;6100475;19;20016;-71
2023/12/13 04:46:43;;;;;;;3.08;1.70;;;;;;;5.60;100.00;96699.72;6100248;19;20030;-71
2023/12/13 04:48:44;;;;;;;2.50;1.60;;;;;;;5.60;100.00;96690.69;6101477;19;20015;-71
2023/12/13 04:50:44;;;;;;;2.45;1.55;;;;;;;5.59;100.00;96687.16;6086743;19;20446;-71
2023/12/13 04:52:44;;;;;;;2.53;1.67;;;;;;;5.63;100.00;96696.22;6098799;19;20343;-71
2023/12/13 04:54:45;;;;;;;1.83;1.42;;;;;;;5.67;100.00;96687.19;6100356;19;21546;-71
2023/12/13 04:56:45;;;;;;;1.50;1.33;;;;;;;5.66;100.00;96691.91;6100942;19;20459;-71
2023/12/13 04:58:45;;;;;;;3.22;1.77;;;;;;;5.74;100.00;96698.19;6100396;19;20739;-71
2023/12/13 05:00:46;;;;;;;2.20;1.20;;;;;;;5.77;100.00;96684.47;6095230;19;20018;-71
2023/12/13 05:02:46;;;;;;;1.63;1.20;;;;;;;5.86;100.00;96698.56;6099522;19;20002;-71
2023/12/13 05:04:47;;;;;;;1.98;1.48;;;;;;;5.93;100.00;96695.09;6100229;19;20007;-71
2023/12/13 05:06:50;;;;;;;4.20;1.67;;;;;;;5.87;100.00;96685.63;6100073;19;20471;-71
2023/12/13 05:08:50;;;;;;;2.10;1.30;;;;;;;5.87;100.00;96688.38;6100186;19;20007;-71
2023/12/13 05:10:51;;;;;;;1.70;1.20;;;;;;;5.85;100.00;96683.28;6098718;19;20013;-71
2023/12/13 05:12:51;;;;;;;4.30;1.50;;;;;;;5.84;100.00;96676.22;6101759;19;20729;-71
2023/12/13 05:14:51;;;;;;;3.58;1.48;;;;;;;5.86;100.00;96689.56;6099517;19;20466;-71
2023/12/13 05:16:52;;;;;;;5.75;1.30;;;;;;;5.87;100.00;96686.41;6101294;19;20366;-71
2023/12/13 05:18:52;;;;;;;3.00;1.25;;;;;;;5.87;100.00;96689.16;6098232;19;20347;-71
2023/12/13 05:20:53;;;;;;;3.05;1.38;;;;;;;5.85;100.00;96680.53;6099687;19;20010;-71
2023/12/13 05:22:53;;;;;;;2.58;1.02;;;;;;;5.85;100.00;96677.03;6100779;19;20040;-71
2023/12/13 05:24:54;;;;;;;2.08;1.30;;;;;;;5.85;100.00;96685.25;6100637;19;20014;-71
2023/12/13 05:26:54;;;;;;;4.97;1.40;;;;;;;5.86;100.00;96682.13;6100428;19;20013;-71
2023/12/13 05:28:54;;;;;;;2.17;1.10;;;;;;;5.86;100.00;96681.34;6097116;19;20253;-71
2023/12/13 05:30:55;;;;;;;1.85;1.30;;;;;;;5.87;100.00;96680.16;6099366;19;20361;-71
2023/12/13 05:32:56;;;;;;;5.30;1.27;;;;;;;5.91;100.00;96673.53;6099782;19;20320;-71
2023/12/13 05:34:56;;;;;;;2.70;1.75;;;;;;;5.94;100.00;96676.66;6099422;19;20006;-71
2023/12/13 05:36:56;;;;;;;1.98;1.27;;;;;;;5.94;100.00;96669.22;6101034;19;20014;-71
2023/12/13 05:38:57;;;;;;;2.53;1.60;;;;;;;5.94;100.00;96671.97;6099297;19;20028;-71
2023/12/13 05:40:59;;;;;;;7.35;2.50;;;;;;;5.99;100.00;96682.56;6098183;19;20007;-71
2023/12/13 05:43:00;;;;;;;6.45;2.40;;;;;;;5.95;100.00;96679.00;6100114;19;20447;-71
2023/12/13 05:45:01;;;;;;;6.57;2.30;;;;;;;5.96;100.00;96677.88;6098781;19;20033;-71
2023/12/13 05:47:01;;;;;;;6.80;2.90;;;;;;;5.98;100.00;96680.22;6100242;19;20484;-71
2023/12/13 05:49:05;;;;;;;5.88;3.40;;;;;;;6.01;100.00;96677.47;6100231;19;20338;-71
2023/12/13 05:51:06;;;;;;;6.65;2.92;;;;;;;6.08;100.00;96682.16;6084677;19;20102;-71
2023/12/13 05:53:06;;;;;;;3.80;2.10;;;;;;;6.05;100.00;96672.75;6085738;19;20011;-71
2023/12/13 05:55:07;;;;;;;9.38;3.05;;;;;;;6.07;100.00;96681.38;6085846;19;20399;-71
2023/12/13 05:57:07;;;;;;;5.43;2.00;;;;;;;6.08;100.00;96685.69;6086567;19;20002;-71
2023/12/13 05:59:07;;;;;;;2.78;1.77;;;;;;;6.03;100.00;96683.34;6086028;19;20468;-71
2023/12/13 06:01:08;;;;;;;5.20;1.92;;;;;;;6.03;100.00;96688.03;6084586;19;19999;-71
2023/12/13 06:03:09;;;;;;;4.55;1.75;;;;;;;6.01;100.00;96687.66;6086261;19;20218;-71
2023/12/13 06:05:09;;;;;;;6.00;2.20;;;;;;;6.00;100.00;96692.34;6083544;19;20070;-71
2023/12/13 06:07:10;;;;;;;5.40;2.65;;;;;;;6.01;100.00;96701.38;6082916;19;19998;-71
2023/12/13 06:09:11;;;;;;;4.65;2.35;;;;;;;6.04;100.00;96697.84;6082389;19;20007;-71
2023/12/13 06:11:11;;;;;;;5.40;2.70;;;;;;;6.03;100.00;96707.25;6081240;19;20006;-71
2023/12/13 06:13:12;;;;;;;4.65;2.10;;;;;;;6.00;100.00;96699.81;6080914;19;20010;-72
2023/12/13 06:15:12;;;;;;;6.63;2.22;;;;;;;6.00;100.00;96705.31;6083510;19;20003;-71
2023/12/13 06:17:13;;;;;;;4.75;2.65;;;;;;;6.00;100.00;96700.59;6082624;19;20348;-71
2023/12/13 06:19:14;;;;;;;8.77;2.80;;;;;;;5.99;100.00;96712.75;6082789;19;20019;-71
2023/12/13 06:21:14;;;;;;;7.75;3.10;;;;;;;6.03;100.00;96701.75;6078073;19;20006;-71
2023/12/13 06:23:14;;;;;;;5.75;2.47;;;;;;;6.02;100.00;96698.25;6084489;19;20018;-71
2023/12/13 06:25:14;;;;;;;6.20;2.42;;;;;;;6.00;100.00;96705.31;6083366;19;20097;-71
2023/12/13 06:27:15;;;;;;;5.65;2.85;;;;;;;6.00;100.00;96706.09;6084249;19;20388;-71
2023/12/13 06:29:16;;;;;;;8.25;3.25;;;;;;;6.03;100.00;96710.00;6083086;19;20366;-71
2023/12/13 06:31:16;;;;;;;9.13;3.78;;;;;;;6.00;100.00;96706.09;6084877;19;20086;-71
2023/12/13 06:33:18;;;;;;;9.48;3.80;;;;;;;6.00;100.00;96697.06;6083490;19;20440;-71
2023/12/13 06:35:19;;;;;;;6.75;3.05;;;;;;;5.96;100.00;96702.56;6085199;19;20009;-71
2023/12/13 06:37:19;;;;;;;9.68;3.10;;;;;;;5.92;100.00;96704.50;6085167;19;20002;-71
2023/12/13 06:39:19;;;;;;;4.97;2.70;;;;;;;5.88;100.00;96707.22;6085715;19;20006;-71
2023/12/13 06:41:20;;;;;;;5.85;3.15;;;;;;;5.84;100.00;96708.38;6088863;19;19998;-71
2023/12/13 06:43:20;;;;;;;5.45;2.22;;;;;;;5.80;100.00;96710.34;6084781;19;20425;-71
2023/12/13 06:45:20;;;;;;;6.70;3.28;;;;;;;5.77;100.00;96714.63;6083163;19;20019;-71
2023/12/13 06:47:21;;;;;;;6.95;3.10;;;;;;;5.76;100.00;96713.06;6085201;19;20034;-71
2023/12/13 06:49:23;;;;;;;6.32;2.75;;;;;;;5.75;100.00;96721.69;6086620;19;21063;-71
2023/12/13 06:51:24;;;;;;;6.43;2.75;;;;;;;5.74;100.00;96714.66;6097988;19;20005;-71
2023/12/13 06:53:24;;;;;;;7.18;2.70;;;;;;;5.70;100.00;96722.06;6101101;19;20458;-71
2023/12/13 06:55:24;;;;;;;6.65;2.75;;;;;;;5.65;100.00;96726.00;6102127;19;20299;-71
2023/12/13 06:57:25;;;;;;;6.53;2.90;;;;;;;5.62;100.00;96722.06;6103102;19;20009;-71
2023/12/13 06:59:25;;;;;;;9.10;3.22;;;;;;;5.58;100.00;96724.00;6102718;19;20023;-71
2023/12/13 07:01:26;;;;;;;5.97;2.47;;;;;;;5.55;100.00;96730.28;6100776;19;20003;-71
2023/12/13 07:03:26;;;;;;;2.78;2.30;;;;;;;5.57;100.00;96722.44;6100021;19;20399;-71
2023/12/13 07:05:26;;;;;;;2.83;1.63;;;;;;;5.57;100.00;96724.41;6103596;19;20014;-71
2023/12/13 07:07:27;;;;;;;5.18;2.30;;;;;;;5.59;100.00;96725.56;6102391;19;20070;-71
2023/12/13 07:09:27;;;;;;;3.13;1.92;;;;;;;5.63;100.00;96723.66;6101287;19;20011;-71
2023/12/13 07:11:27;;;;;;;5.10;2.17;;;;;;;5.69;100.00;96726.00;6102249;19;20282;-71
2023/12/13 07:13:28;;;;;;;5.03;1.95;;;;;;;5.69;100.00;96723.25;6101183;19;20002;-71
2023/12/13 07:15:28;;;;;;;6.38;1.90;;;;;;;5.71;100.00;96727.19;6101594;19;20562;-71
2023/12/13 07:17:29;;;;;;;4.93;1.80;;;;;;;5.73;100.00;96718.56;6102287;19;20023;-71
2023/12/13 07:19:29;;;;;;;2.85;2.08;;;;;;;5.76;100.00;96726.78;6100343;19;19999;-71
2023/12/13 07:21:29;;;;;;;4.30;2.53;;;;;;;5.83;100.00;96715.06;6103078;19;20408;-71
2023/12/13 07:23:31;;;;;;;4.60;2.15;;;;;;;5.82;100.00;96718.97;6104195;19;20026;-71
2023/12/13 07:25:32;;;;;;;2.75;1.70;;;;;;;5.80;100.00;96718.59;6103971;19;20018;-71
2023/12/13 07:27:33;;;;;;;5.70;2.63;;;;;;;5.81;100.00;96720.94;6104402;19;20020;-71
2023/12/13 07:29:34;;;;;;;4.68;2.58;;;;;;;5.85;100.00;96723.69;6102665;19;20013;-71
2023/12/13 07:31:41;;;;;;;6.18;2.75;;;;;;;5.85;100.00;96724.47;6103385;19;20475;-71
2023/12/13 07:33:41;;;;;;;4.35;2.45;;;;;;;5.88;100.00;96720.16;6104191;19;20007;-71
2023/12/13 07:35:45;;;;;;;5.13;2.10;;;;;;;5.89;100.00;96716.25;6103013;19;20017;-71
2023/12/13 07:37:47;;;;;;;3.17;2.40;;;;;;;5.87;100.00;96715.81;6103389;19;20002;-71
2023/12/13 07:39:47;;;;;;;5.13;3.85;;;;;;;5.87;100.00;96710.34;6101961;19;20654;-71
2023/12/13 07:41:47;;;;;;;5.20;3.80;;;;;;;5.85;100.00;96709.94;6103279;19;20038;-71
2023/12/13 07:43:48;;;;;;;5.80;4.25;;;;;;;5.88;100.00;96706.44;6103350;19;20003;-71
2023/12/13 07:45:51;;;;;;;10.13;5.20;;;;;;;5.89;100.00;96713.50;6102184;19;20029;-71
2023/12/13 07:47:52;;;;;;;6.15;4.63;;;;;;;5.89;100.00;96708.00;6102702;19;20011;-71
2023/12/13 07:49:53;;;;;;;7.25;4.80;;;;;;;5.89;100.00;96706.06;6102368;19;20014;-71
2023/12/13 07:51:54;;;;;;;8.50;5.07;;;;;;;5.88;100.00;96699.00;6102200;19;20003;-71
2023/12/13 07:53:54;;;;;;;7.63;4.55;;;;;;;5.88;100.00;96707.22;6102450;19;20006;-71
2023/12/13 07:55:55;;;;;;;6.22;4.15;;;;;;;5.88;100.00;96701.75;6102767;19;20006;-71
2023/12/13 07:57:55;;;;;;;6.43;4.50;;;;;;;5.90;100.00;96704.91;6103804;19;20003;-71
2023/12/13 07:59:55;;;;;;;9.43;5.57;;;;;;;5.93;100.00;96703.34;6101348;19;20370;-71
2023/12/13 08:01:56;;;;;;;8.13;4.90;;;;;;;5.94;100.00;96710.38;6102843;19;20033;-71
2023/12/13 08:03:56;;;;;;;12.20;5.90;;;;;;;5.94;100.00;96704.91;6102157;19;20003;-71
2023/12/13 08:05:57;;;;;;;9.32;6.75;;;;;;;5.96;100.00;96712.72;6101706;19;20106;-71
2023/12/13 08:07:57;;;;;;;9.40;5.45;;;;;;;5.99;100.00;96712.75;6102548;19;20017;-71
2023/12/13 08:09:59;;;;;;;7.63;3.80;;;;;;;6.03;100.00;96713.53;6101207;19;20014;-71
2023/12/13 08:11:59;;;;;;;4.00;2.55;;;;;;;6.07;100.00;96710.81;6102617;19;20030;-71
2023/12/13 08:13:59;;;;;;;4.18;1.60;;;;;;;6.16;100.00;96716.69;6101880;19;20011;-71
2023/12/13 08:16:00;;;;;;;6.80;3.00;;;;;;;6.20;100.00;96722.97;6100912;19;20066;-71
2023/12/13 08:18:00;;;;;;;2.88;1.48;;;;;;;6.23;100.00;96715.91;6101724;19;20294;-71
2023/12/13 08:20:01;;;;;;;3.58;1.65;;;;;;;6.27;100.00;96711.97;6100676;19;20406;-71
2023/12/13 08:22:01;;;;;;;4.43;1.50;;;;;;;6.31;100.00;96717.50;6100668;19;20011;-71
2023/12/13 08:24:02;;;;;;;2.90;1.70;;;;;;;6.36;100.00;96726.09;6102559;19;20335;-71
2023/12/13 08:26:03;;;;;;;3.58;1.60;;;;;;;6.39;100.00;96719.06;6101771;19;20014;-71
2023/12/13 08:28:03;;;;;;;2.85;1.50;;;;;;;6.39;100.00;96719.84;6101541;19;20007;-71
2023/12/13 08:30:04;;;;;;;2.90;1.60;;;;;;;6.42;100.00;96734.75;6101313;19;20010;-71
2023/12/13 08:32:06;;;;;;;5.63;2.20;;;;;;;6.45;100.00;96725.69;6102349;19;20385;-71
2023/12/13 08:34:06;;;;;;;3.30;2.08;;;;;;;6.52;100.00;96724.91;6101536;19;20524;-71
2023/12/13 08:36:11;;;;;;;6.35;3.17;;;;;;;6.60;100.00;96727.25;6100968;19;20010;-71
2023/12/13 08:38:11;;;;;;;6.45;3.50;;;;;;;6.61;100.00;96714.31;6101487;19;20049;-71
2023/12/13 08:40:12;;;;;;;5.32;3.72;;;;;;;6.60;100.00;96719.03;6101145;19;20041;-71
2023/12/13 08:42:12;;;;;;;5.85;3.38;;;;;;;6.57;100.00;96719.03;6101775;19;20364;-71
2023/12/13 08:44:12;;;;;;;6.25;3.13;;;;;;;6.55;100.00;96730.44;6100769;19;20010;-71
2023/12/13 08:46:13;;;;;;;3.10;2.67;;;;;;;6.52;100.00;96731.19;6101109;19;20010;-71
2023/12/13 08:48:13;;;;;;;4.05;2.88;;;;;;;6.50;100.00;96732.78;6101535;19;20029;-71
2023/12/13 08:50:17;;;;;;;4.22;3.55;;;;;;;6.46;100.00;96732.78;6101089;19;20026;-72
2023/12/13 08:52:18;;;;;;;5.20;3.38;;;;;;;6.44;100.00;96726.88;6101233;19;20006;-71
2023/12/13 08:54:18;;;;;;;6.63;2.97;;;;;;;6.41;100.00;96733.16;6102602;19;20358;-71
2023/12/13 08:56:18;;;;;;;6.25;3.13;;;;;;;6.39;100.00;96732.78;6100974;19;20018;-71
2023/12/13 08:58:19;;;;;;;11.80;6.18;;;;;;;6.37;100.00;96737.88;6100550;19;20338;-71
2023/12/13 09:00:19;;;;;;;14.43;7.68;;;;;;;6.34;100.00;96733.16;6100513;19;19999;-71
2023/12/13 09:02:20;;;;;;;7.55;3.55;;;;;;;6.39;100.00;96730.03;6100953;19;20009;-71
2023/12/13 09:04:20;;;;;;;4.95;2.28;;;;;;;6.46;100.00;96732.78;6101245;19;21500;-71
2023/12/13 09:06:20;;;;;;;3.85;2.10;;;;;;;6.51;100.00;96728.84;6101107;19;20184;-70
2023/12/13 09:08:21;;;;;;;9.82;4.70;;;;;;;6.53;100.00;96724.53;6100503;19;20512;-70
2023/12/13 09:10:22;;;;;;;7.50;3.15;;;;;;;6.55;100.00;96724.16;6100191;19;20478;-71
2023/12/13 09:12:23;;;;;;;5.13;2.60;;;;;;;6.58;100.00;96728.84;6100649;19;20033;-71
2023/12/13 09:14:23;;;;;;;11.32;5.45;;;;;;;6.63;100.00;96728.47;6100847;19;20455;-70
2023/12/13 09:16:23;;;;;;;8.10;4.15;;;;;;;6.67;100.00;96723.72;6100425;19;20022;-71
2023/12/13 09:18:24;;;;;;;8.15;4.25;;;;;;;6.71;100.00;96730.81;6101045;19;20005;-70
2023/12/13 09:20:24;;;;;;;6.03;3.33;;;;;;;6.75;100.00;96734.31;6100121;19;20041;-71
2023/12/13 09:22:25;;;;;;;4.88;2.85;;;;;;;6.79;100.00;96731.59;6101013;19;20327;-71
2023/12/13 09:24:26;;;;;;;5.38;2.50;;;;;;;6.86;100.00;96730.75;6100309;19;22955;-71
2023/12/13 09:26:26;;;;;;;3.72;1.70;;;;;;;6.88;100.00;96729.22;6100630;19;20010;-71
2023/12/13 09:28:29;;;;;;;3.70;1.60;;;;;;;6.97;100.00;96735.06;6100145;19;20098;-71